Time;durP1;ratioP1;P1;durP2;ratioP2;P2;SDS_P1;SDS_P2;PMS_P1;PMS_P2;Temp;Humidity;BMP_temperature;BMP_pressure;BME280_temperature;BME280_humidity;BME280_pressure;Samples;Min_cycle;Max_cycle;Signal;HPM_P1;HPM_P2
2023/08/29 00:01:10;;;;;;;5.90;2.50;;;15.10;1.00;;;;;;5011596;28;20407;-73
2023/08/29 00:03:35;;;;;;;6.07;2.30;;;15.10;1.00;;;;;;5011925;28;20945;-74
2023/08/29 00:06:05;;;;;;;5.60;1.98;;;15.10;1.00;;;;;;5011085;28;20401;-73
2023/08/29 00:08:33;;;;;;;6.30;2.50;;;15.20;1.00;;;;;;5011681;28;20389;-74
2023/08/29 00:10:59;;;;;;;6.50;2.30;;;15.20;1.00;;;;;;5011641;28;20432;-74
2023/08/29 00:13:25;;;;;;;8.33;3.00;;;15.20;1.00;;;;;;5011629;28;20397;-74
2023/08/29 00:15:51;;;;;;;6.60;2.60;;;15.20;1.00;;;;;;5011467;28;20407;-74
2023/08/29 00:18:19;;;;;;;6.15;2.47;;;15.20;1.00;;;;;;5011221;28;20473;-74
2023/08/29 00:20:44;;;;;;;6.50;2.30;;;15.20;1.00;;;;;;5011094;28;20400;-74
2023/08/29 00:23:10;;;;;;;6.53;2.67;;;15.10;1.00;;;;;;5011281;28;20393;-74
2023/08/29 00:25:36;;;;;;;6.13;2.22;;;15.00;1.00;;;;;;5011985;28;20389;-74
2023/08/29 00:28:01;;;;;;;7.43;2.67;;;15.00;1.00;;;;;;5011461;28;20396;-73
2023/08/29 00:30:27;;;;;;;7.13;2.60;;;15.00;1.00;;;;;;5011339;28;20385;-74
2023/08/29 00:32:52;;;;;;;8.68;3.70;;;15.00;1.00;;;;;;5011190;28;20881;-74
2023/08/29 00:35:18;;;;;;;7.60;2.80;;;15.00;1.00;;;;;;5010802;28;20392;-74
2023/08/29 00:37:43;;;;;;;7.20;2.57;;;15.10;1.00;;;;;;5011089;28;20405;-73
2023/08/29 00:40:10;;;;;;;7.10;2.80;;;15.10;1.00;;;;;;5011349;28;20421;-74
2023/08/29 00:42:36;;;;;;;7.45;2.55;;;15.10;1.00;;;;;;5011830;28;20759;-74
2023/08/29 00:45:01;;;;;;;7.45;2.38;;;15.20;1.00;;;;;;5011023;28;20831;-75
2023/08/29 00:47:27;;;;;;;6.83;2.63;;;15.10;1.00;;;;;;5010885;28;20408;-75
2023/08/29 00:49:54;;;;;;;8.27;3.45;;;15.20;1.00;;;;;;5010789;28;20419;-75
2023/08/29 00:52:20;;;;;;;8.10;3.00;;;15.20;1.00;;;;;;5009842;28;20901;-75
2023/08/29 00:54:46;;;;;;;6.40;2.72;;;15.20;1.00;;;;;;5010759;28;20407;-75
2023/08/29 00:57:11;;;;;;;7.43;2.60;;;15.30;1.00;;;;;;5010264;28;20789;-75
2023/08/29 00:59:37;;;;;;;7.53;2.67;;;15.30;1.00;;;;;;5011003;28;20420;-75
2023/08/29 01:02:03;;;;;;;6.70;2.80;;;15.30;1.00;;;;;;5010610;28;20408;-75
2023/08/29 01:04:29;;;;;;;8.50;3.00;;;15.30;1.00;;;;;;5010307;28;20396;-75
2023/08/29 01:06:56;;;;;;;6.40;2.78;;;15.40;1.00;;;;;;5010558;28;20384;-75
2023/08/29 01:09:22;;;;;;;7.10;2.67;;;15.30;1.00;;;;;;5010599;28;20615;-75
2023/08/29 01:12:00;;;;;;;6.93;2.93;;;15.30;1.00;;;;;;5010292;28;20393;-75
2023/08/29 01:14:42;;;;;;;6.10;2.50;;;15.30;1.00;;;;;;5010521;28;20396;-75
2023/08/29 01:17:14;;;;;;;7.60;3.00;;;15.20;1.00;;;;;;5010150;28;20420;-75
2023/08/29 01:19:42;;;;;;;6.78;2.60;;;15.20;1.00;;;;;;5010255;28;20428;-75
2023/08/29 01:22:34;;;;;;;7.97;3.30;;;15.10;1.00;;;;;;5010566;28;20400;-75
2023/08/29 01:25:17;;;;;;;7.38;2.97;;;15.00;1.00;;;;;;5010148;28;21042;-75
2023/08/29 01:27:44;;;;;;;7.90;3.22;;;15.00;1.00;;;;;;5010151;28;20480;-75
2023/08/29 01:30:10;;;;;;;7.45;3.30;;;15.00;1.00;;;;;;5009991;28;20404;-75
2023/08/29 01:32:36;;;;;;;6.75;2.67;;;15.10;1.00;;;;;;5010245;28;20428;-75
2023/08/29 01:35:02;;;;;;;8.57;3.25;;;15.10;1.00;;;;;;5009588;28;20476;-75
2023/08/29 01:37:28;;;;;;;7.60;2.90;;;15.10;1.00;;;;;;5010197;28;20501;-75
2023/08/29 01:39:53;;;;;;;6.75;2.60;;;15.10;1.00;;;;;;5010831;28;20413;-75
2023/08/29 01:42:19;;;;;;;7.45;3.30;;;15.10;1.00;;;;;;5010742;28;20777;-75
2023/08/29 01:44:44;;;;;;;11.13;3.17;;;15.10;1.00;;;;;;5010375;28;20747;-75
2023/08/29 01:47:10;;;;;;;7.60;3.33;;;15.10;1.00;;;;;;5010132;28;20404;-75
2023/08/29 01:49:36;;;;;;;7.20;3.30;;;15.10;1.00;;;;;;5011036;28;20742;-75
2023/08/29 01:52:02;;;;;;;8.15;2.97;;;15.10;1.00;;;;;;5010584;28;20404;-75
2023/08/29 01:54:28;;;;;;;7.53;3.15;;;15.20;1.00;;;;;;4992868;28;20856;-75
2023/08/29 01:56:55;;;;;;;7.20;3.07;;;15.20;1.00;;;;;;5010136;28;20405;-75
2023/08/29 01:59:22;;;;;;;7.93;2.75;;;15.20;1.00;;;;;;5009986;28;20429;-75
2023/08/29 02:01:47;;;;;;;7.90;3.17;;;15.20;1.00;;;;;;5009525;28;20421;-75
2023/08/29 02:04:13;;;;;;;7.57;2.90;;;15.20;1.00;;;;;;5009840;28;20397;-75
2023/08/29 02:06:38;;;;;;;7.30;3.10;;;15.20;1.00;;;;;;5009835;28;20894;-75
2023/08/29 02:09:04;;;;;;;8.10;3.30;;;15.30;1.00;;;;;;5009971;28;20388;-75
2023/08/29 02:11:30;;;;;;;7.25;2.70;;;15.30;1.00;;;;;;5010295;28;20393;-74
2023/08/29 02:13:55;;;;;;;7.57;2.73;;;15.40;1.00;;;;;;5010068;28;20912;-75
2023/08/29 02:16:21;;;;;;;7.00;2.90;;;15.40;1.00;;;;;;5009625;28;20397;-76
2023/08/29 02:18:47;;;;;;;7.10;3.20;;;15.40;1.00;;;;;;5009803;28;20411;-76
2023/08/29 02:21:13;;;;;;;7.70;2.95;;;15.40;1.00;;;;;;5009696;28;20961;-75
2023/08/29 02:23:38;;;;;;;6.70;2.53;;;15.40;1.00;;;;;;5009500;28;20481;-75
2023/08/29 02:26:05;;;;;;;7.60;2.90;;;15.40;1.00;;;;;;5010198;28;20392;-75
2023/08/29 02:28:35;;;;;;;7.47;3.28;;;15.40;1.00;;;;;;5009092;28;20504;-75
2023/08/29 02:31:08;;;;;;;8.02;3.28;;;15.50;1.00;;;;;;5009026;28;20392;-75
2023/08/29 02:33:37;;;;;;;6.88;3.00;;;15.60;1.00;;;;;;5009974;28;20476;-74
2023/08/29 02:36:04;;;;;;;8.68;3.00;;;15.60;1.00;;;;;;5009388;28;20397;-75
2023/08/29 02:38:30;;;;;;;7.03;2.90;;;15.60;1.00;;;;;;5009108;28;20409;-74
2023/08/29 02:40:55;;;;;;;9.02;4.00;;;15.60;1.00;;;;;;5008794;28;20450;-74
2023/08/29 02:43:21;;;;;;;6.70;2.90;;;15.50;1.00;;;;;;5008856;28;20396;-75
2023/08/29 02:45:47;;;;;;;6.90;2.60;;;15.60;1.00;;;;;;5008644;28;20753;-74
2023/08/29 02:48:12;;;;;;;8.60;2.97;;;15.60;1.00;;;;;;5008751;28;20396;-75
2023/08/29 02:50:38;;;;;;;7.43;2.95;;;15.50;1.00;;;;;;5009229;28;20399;-75
2023/08/29 02:53:03;;;;;;;8.53;3.30;;;15.40;1.00;;;;;;5009209;28;20460;-75
2023/08/29 02:55:29;;;;;;;8.03;3.10;;;15.30;1.00;;;;;;5008564;28;20459;-75
2023/08/29 02:57:55;;;;;;;9.15;4.00;;;15.30;1.00;;;;;;5008679;28;20393;-75
2023/08/29 03:00:21;;;;;;;8.20;3.60;;;15.20;1.00;;;;;;5008219;28;20491;-75
2023/08/29 03:02:46;;;;;;;8.60;3.58;;;15.20;1.00;;;;;;5008504;28;20409;-74
2023/08/29 03:05:12;;;;;;;7.55;3.40;;;15.10;1.00;;;;;;5008462;28;20394;-75
2023/08/29 03:07:37;;;;;;;9.07;3.90;;;15.10;1.00;;;;;;5009071;28;20480;-74
2023/08/29 03:10:03;;;;;;;7.70;3.83;;;15.10;1.00;;;;;;5008837;28;20472;-75
2023/08/29 03:12:29;;;;;;;9.20;3.47;;;15.10;1.00;;;;;;5008598;28;20463;-75
2023/08/29 03:14:54;;;;;;;8.00;3.50;;;15.10;1.00;;;;;;5008601;28;20405;-75
2023/08/29 03:17:21;;;;;;;9.02;3.60;;;15.10;1.00;;;;;;5012481;28;20444;-74
2023/08/29 03:19:47;;;;;;;8.53;3.83;;;15.10;1.00;;;;;;5012275;28;20420;-74
2023/08/29 03:22:13;;;;;;;8.48;3.83;;;15.10;1.00;;;;;;5012379;28;20392;-75
2023/08/29 03:24:39;;;;;;;9.80;4.13;;;15.10;1.00;;;;;;5012398;28;20389;-75
2023/08/29 03:27:05;;;;;;;9.93;4.40;;;15.20;1.00;;;;;;5012788;28;20397;-75
2023/08/29 03:29:30;;;;;;;11.02;4.18;;;15.20;1.00;;;;;;4994282;28;20409;-75
2023/08/29 03:31:56;;;;;;;8.63;4.00;;;15.20;1.00;;;;;;5012217;28;20921;-75
2023/08/29 03:34:21;;;;;;;7.33;3.73;;;15.20;1.00;;;;;;5011906;28;20932;-74
2023/08/29 03:36:47;;;;;;;10.17;4.40;;;15.10;1.00;;;;;;5012159;28;20377;-75
2023/08/29 03:39:12;;;;;;;11.80;4.70;;;15.00;1.00;;;;;;5012351;28;20417;-75
2023/08/29 03:41:38;;;;;;;9.05;4.50;;;15.00;1.00;;;;;;5012501;28;20388;-75
2023/08/29 03:44:05;;;;;;;9.30;4.32;;;15.00;1.00;;;;;;5012543;28;20397;-75
2023/08/29 03:46:30;;;;;;;10.63;4.82;;;14.90;1.00;;;;;;5012258;28;20928;-75
2023/08/29 03:48:56;;;;;;;13.40;5.18;;;14.90;1.00;;;;;;5011934;28;20464;-75
2023/08/29 03:51:22;;;;;;;11.53;5.20;;;14.90;1.00;;;;;;5012120;28;20401;-75
2023/08/29 03:53:47;;;;;;;12.30;5.30;;;14.80;1.00;;;;;;5012006;28;20383;-74
2023/08/29 03:56:13;;;;;;;12.80;5.47;;;14.80;1.00;;;;;;5012122;28;20409;-75
2023/08/29 03:58:38;;;;;;;11.40;5.45;;;14.80;6.30;;;;;;5011526;28;20436;-75
2023/08/29 04:01:04;;;;;;;13.70;6.70;;;14.90;1.00;;;;;;5012087;28;20397;-75
2023/08/29 04:03:30;;;;;;;11.73;6.00;;;14.80;9.00;;;;;;5011805;28;20389;-74
2023/08/29 04:05:56;;;;;;;15.57;6.90;;;14.60;48.50;;;;;;4994050;28;20455;-75
2023/08/29 04:08:22;;;;;;;12.57;6.33;;;14.70;60.50;;;;;;5011663;28;20401;-75
2023/08/29 04:10:48;;;;;;;10.95;5.30;;;14.70;50.50;;;;;;5011765;28;20439;-75
2023/08/29 04:13:14;;;;;;;12.05;6.65;;;14.70;60.30;;;;;;5011467;28;20408;-75
2023/08/29 04:15:40;;;;;;;13.97;5.83;;;14.80;55.90;;;;;;5011539;28;20893;-75
2023/08/29 04:18:07;;;;;;;12.70;6.80;;;14.80;50.60;;;;;;5011968;28;20385;-75
2023/08/29 04:20:33;;;;;;;15.10;7.35;;;14.70;44.80;;;;;;5011533;28;20428;-75
2023/08/29 04:23:01;;;;;;;17.80;6.73;;;14.80;47.30;;;;;;5011527;28;20754;-75
2023/08/29 04:25:27;;;;;;;14.02;6.60;;;14.80;54.60;;;;;;5011139;28;20423;-75
2023/08/29 04:27:53;;;;;;;13.70;6.70;;;14.70;68.00;;;;;;5010308;28;20877;-75
2023/08/29 04:30:20;;;;;;;13.05;6.45;;;14.70;82.30;;;;;;5011260;28;20392;-75
2023/08/29 04:32:53;;;;;;;14.57;7.43;;;14.70;77.70;;;;;;5011018;28;20399;-75
2023/08/29 04:35:19;;;;;;;12.68;6.00;;;14.80;99.10;;;;;;5011189;28;20425;-74
2023/08/29 04:37:46;;;;;;;12.75;5.75;;;14.90;77.80;;;;;;5011072;28;20384;-75
2023/08/29 04:40:12;;;;;;;12.95;6.53;;;14.90;53.70;;;;;;5010496;28;20423;-74
2023/08/29 04:42:37;;;;;;;10.83;5.93;;;14.80;51.20;;;;;;5011432;28;20893;-75
2023/08/29 04:45:07;;;;;;;12.10;6.03;;;14.80;73.50;;;;;;5011323;28;20388;-75
2023/08/29 04:47:33;;;;;;;11.48;5.80;;;14.60;99.90;;;;;;5010801;28;20476;-72
2023/08/29 04:49:59;;;;;;;11.02;5.97;;;14.50;99.90;;;;;;5010744;28;20416;-72
2023/08/29 04:52:26;;;;;;;13.27;6.20;;;14.60;99.90;;;;;;5010789;28;20443;-72
2023/08/29 04:54:51;;;;;;;14.27;6.80;;;14.50;99.90;;;;;;5010400;28;20405;-72
2023/08/29 04:57:17;;;;;;;12.90;6.63;;;14.60;99.90;;;;;;5010892;28;20480;-72
2023/08/29 04:59:42;;;;;;;18.48;6.70;;;14.50;99.90;;;;;;5010618;28;20416;-72
2023/08/29 05:02:08;;;;;;;13.90;6.40;;;14.60;99.90;;;;;;5010512;28;20385;-72
2023/08/29 05:04:34;;;;;;;10.37;5.83;;;14.60;99.90;;;;;;5011010;28;20427;-72
2023/08/29 05:06:59;;;;;;;14.83;6.77;;;14.60;99.90;;;;;;5010567;28;20829;-72
2023/08/29 05:09:25;;;;;;;14.35;6.72;;;14.60;99.90;;;;;;5010163;28;20396;-72
2023/08/29 05:11:50;;;;;;;13.33;6.40;;;14.60;99.90;;;;;;5010511;28;20878;-72
2023/08/29 05:14:16;;;;;;;12.37;7.13;;;14.60;99.90;;;;;;5010469;28;20404;-72
2023/08/29 05:16:41;;;;;;;12.07;6.20;;;14.60;99.90;;;;;;5010172;28;20397;-72
2023/08/29 05:19:08;;;;;;;14.63;7.00;;;14.60;99.90;;;;;;4993039;28;20420;-72
2023/08/29 05:21:33;;;;;;;14.23;6.78;;;14.60;99.90;;;;;;5010606;28;20401;-72
2023/08/29 05:24:00;;;;;;;11.85;5.95;;;14.70;99.90;;;;;;5009929;28;20454;-72
2023/08/29 05:26:26;;;;;;;15.77;6.90;;;14.80;99.90;;;;;;4992517;28;20396;-72
2023/08/29 05:28:51;;;;;;;13.95;6.68;;;14.90;99.90;;;;;;5010046;28;20397;-72
2023/08/29 05:31:17;;;;;;;14.03;6.03;;;14.80;99.90;;;;;;5010147;28;20399;-72
2023/08/29 05:33:42;;;;;;;13.67;7.00;;;14.80;99.90;;;;;;5009887;28;20408;-72
2023/08/29 05:36:08;;;;;;;12.57;5.63;;;15.00;99.70;;;;;;5010478;28;20765;-75
2023/08/29 05:38:33;;;;;;;13.00;6.20;;;15.00;55.10;;;;;;5009686;28;20389;-74
2023/08/29 05:40:59;;;;;;;12.07;5.90;;;15.00;89.60;;;;;;5009997;28;20427;-75
2023/08/29 05:43:24;;;;;;;12.23;6.23;;;14.90;73.60;;;;;;5009760;28;20464;-74
2023/08/29 05:45:52;;;;;;;11.68;6.00;;;15.00;86.90;;;;;;5009842;28;20432;-74
2023/08/29 05:48:18;;;;;;;11.68;6.10;;;15.00;98.90;;;;;;5009804;28;20923;-75
2023/08/29 05:50:43;;;;;;;13.40;6.70;;;15.00;96.60;;;;;;5010081;28;20476;-75
2023/08/29 05:53:08;;;;;;;13.83;6.10;;;15.10;99.90;;;;;;5009860;28;20408;-75
2023/08/29 05:55:34;;;;;;;12.80;5.60;;;15.10;99.90;;;;;;5009660;28;20392;-75
2023/08/29 05:58:00;;;;;;;11.80;5.40;;;15.20;96.00;;;;;;5009614;28;20411;-75
2023/08/29 06:00:26;;;;;;;10.80;5.60;;;15.30;70.50;;;;;;5010671;28;20413;-74
2023/08/29 06:02:54;;;;;;;11.43;5.70;;;15.30;47.00;;;;;;5009569;28;20396;-75
2023/08/29 06:05:20;;;;;;;10.63;6.30;;;15.20;29.40;;;;;;5029964;28;20410;-75
2023/08/29 06:07:47;;;;;;;11.48;6.20;;;15.10;39.70;;;;;;5039147;28;21273;-75
2023/08/29 06:10:13;;;;;;;13.20;5.50;;;15.10;75.20;;;;;;5037121;28;20399;-74
2023/08/29 06:12:39;;;;;;;10.67;5.50;;;15.10;64.90;;;;;;5029077;28;20376;-75
2023/08/29 06:15:05;;;;;;;14.43;6.00;;;15.10;66.30;;;;;;5046098;28;20388;-75
2023/08/29 06:17:30;;;;;;;11.35;5.43;;;15.20;67.60;;;;;;5048903;28;20750;-75
2023/08/29 06:19:56;;;;;;;13.10;6.23;;;15.10;80.20;;;;;;5048875;28;20424;-75
2023/08/29 06:22:22;;;;;;;11.63;5.68;;;15.10;90.20;;;;;;5042005;28;20395;-75
2023/08/29 06:24:48;;;;;;;11.77;6.17;;;15.00;93.90;;;;;;5029180;28;20450;-75
2023/08/29 06:27:13;;;;;;;12.80;6.75;;;15.10;99.90;;;;;;5028973;28;20379;-75
2023/08/29 06:29:39;;;;;;;12.32;5.40;;;15.20;73.90;;;;;;5029082;28;20483;-75
2023/08/29 06:32:05;;;;;;;11.38;5.90;;;15.30;46.70;;;;;;5029524;28;20399;-75
2023/08/29 06:34:31;;;;;;;12.27;5.80;;;15.40;40.30;;;;;;5029113;28;20452;-75
2023/08/29 06:36:57;;;;;;;12.33;6.30;;;15.50;4.60;;;;;;5028648;28;20402;-75
2023/08/29 06:39:22;;;;;;;11.45;6.22;;;15.60;1.00;;;;;;5028642;28;20827;-75
2023/08/29 06:41:48;;;;;;;9.07;5.20;;;15.60;1.00;;;;;;5028486;28;20518;-75
2023/08/29 06:44:14;;;;;;;10.50;4.70;;;15.60;7.60;;;;;;5028827;28;20756;-75
2023/08/29 06:46:40;;;;;;;11.23;5.13;;;15.50;1.00;;;;;;5028450;28;20476;-75
2023/08/29 06:49:06;;;;;;;10.48;5.50;;;15.50;1.00;;;;;;5028910;28;20383;-75
2023/08/29 06:51:31;;;;;;;12.50;5.80;;;15.40;1.00;;;;;;5027678;28;20391;-75
2023/08/29 06:53:57;;;;;;;11.10;5.90;;;15.50;22.40;;;;;;5028199;28;20490;-75
2023/08/29 06:56:23;;;;;;;12.27;5.43;;;15.60;1.60;;;;;;5028378;28;20493;-75
2023/08/29 06:58:49;;;;;;;12.45;5.60;;;15.80;1.00;;;;;;5028478;28;20764;-75
2023/08/29 07:01:14;;;;;;;10.50;4.30;;;15.70;1.00;;;;;;5028272;28;20403;-75
2023/08/29 07:03:40;;;;;;;10.30;5.57;;;15.70;1.00;;;;;;5028164;28;20406;-75
2023/08/29 07:06:06;;;;;;;9.68;4.93;;;15.60;1.00;;;;;;5028412;28;20410;-75
2023/08/29 07:08:32;;;;;;;10.38;4.90;;;15.50;1.00;;;;;;5028458;28;20426;-75
2023/08/29 07:10:58;;;;;;;10.00;4.80;;;15.60;14.00;;;;;;5028496;28;21535;-75
2023/08/29 07:13:23;;;;;;;10.77;5.32;;;15.40;22.10;;;;;;5033224;28;20420;-75
2023/08/29 07:15:49;;;;;;;12.25;6.38;;;15.40;29.30;;;;;;5048109;28;20449;-75
2023/08/29 07:18:14;;;;;;;9.73;5.77;;;15.40;50.40;;;;;;5048207;28;20442;-75
2023/08/29 07:20:40;;;;;;;12.03;5.27;;;15.50;45.00;;;;;;5039428;28;20787;-75
2023/08/29 07:23:06;;;;;;;11.15;4.63;;;15.40;54.10;;;;;;5042636;28;20431;-75
2023/08/29 07:25:38;;;;;;;9.80;4.90;;;15.50;43.10;;;;;;5031651;28;20399;-75
2023/08/29 07:28:06;;;;;;;9.73;5.37;;;15.60;42.30;;;;;;5030941;28;20430;-75
2023/08/29 07:30:31;;;;;;;11.40;5.53;;;15.70;38.90;;;;;;5047746;28;20382;-75
2023/08/29 07:32:57;;;;;;;12.68;5.93;;;15.60;12.60;;;;;;5048054;28;20408;-77
2023/08/29 07:35:22;;;;;;;10.27;5.30;;;15.60;18.90;;;;;;5047577;28;20396;-78
2023/08/29 07:37:48;;;;;;;10.17;5.10;;;15.60;65.50;;;;;;5048029;28;20385;-77
2023/08/29 07:40:14;;;;;;;9.90;5.60;;;15.70;24.70;;;;;;5047786;28;20443;-76
2023/08/29 07:42:40;;;;;;;17.60;4.73;;;15.70;46.60;;;;;;5047712;28;20405;-75
2023/08/29 07:45:06;;;;;;;10.25;5.72;;;15.80;40.00;;;;;;5047954;28;20373;-75
2023/08/29 07:47:32;;;;;;;10.77;5.20;;;15.70;24.40;;;;;;5047954;28;20472;-75
2023/08/29 07:49:57;;;;;;;11.00;5.90;;;15.60;88.80;;;;;;5047470;28;21638;-75
2023/08/29 07:52:23;;;;;;;11.13;6.20;;;15.80;92.50;;;;;;5047612;28;20385;-75
2023/08/29 07:54:48;;;;;;;11.77;5.90;;;15.90;49.10;;;;;;5036084;28;20392;-75
2023/08/29 07:57:14;;;;;;;11.23;5.47;;;15.90;19.10;;;;;;5028065;28;20515;-75
2023/08/29 07:59:40;;;;;;;11.23;5.73;;;15.90;34.30;;;;;;5027828;28;20419;-75
2023/08/29 08:02:06;;;;;;;12.23;6.28;;;15.90;48.60;;;;;;5030274;28;20391;-75
2023/08/29 08:04:31;;;;;;;11.07;5.43;;;16.10;58.20;;;;;;5031070;28;20407;-75
2023/08/29 08:06:57;;;;;;;13.20;6.20;;;16.20;27.90;;;;;;5031254;28;20413;-75
2023/08/29 08:09:22;;;;;;;10.87;5.33;;;16.20;23.00;;;;;;5031217;28;20387;-75
2023/08/29 08:11:48;;;;;;;10.70;5.47;;;16.10;1.00;;;;;;5031348;28;20798;-75
2023/08/29 08:14:13;;;;;;;11.60;5.73;;;16.10;19.10;;;;;;5031164;28;20450;-75
2023/08/29 08:16:39;;;;;;;10.02;5.70;;;16.10;39.40;;;;;;5030943;28;20380;-75
2023/08/29 08:19:04;;;;;;;11.00;5.88;;;16.10;18.60;;;;;;5031392;28;20510;-75
2023/08/29 08:21:30;;;;;;;10.33;6.03;;;16.10;28.20;;;;;;5030922;28;20400;-75
2023/08/29 08:23:55;;;;;;;10.33;5.70;;;16.20;27.60;;;;;;5031059;28;20394;-75
2023/08/29 08:26:21;;;;;;;11.60;6.20;;;16.30;52.20;;;;;;5031302;28;20812;-75
2023/08/29 08:28:46;;;;;;;12.50;6.70;;;16.30;25.60;;;;;;5040958;28;20464;-75
2023/08/29 08:31:12;;;;;;;11.25;6.07;;;16.10;48.50;;;;;;5050712;28;20389;-75
2023/08/29 08:33:37;;;;;;;12.30;6.10;;;16.00;38.10;;;;;;5050982;28;20401;-75
2023/08/29 08:36:03;;;;;;;13.53;6.87;;;16.00;45.30;;;;;;5051130;28;20400;-75
2023/08/29 08:38:29;;;;;;;11.20;6.03;;;16.10;81.00;;;;;;5050663;28;20747;-75
2023/08/29 08:40:56;;;;;;;14.93;7.57;;;16.20;95.30;;;;;;5050504;28;20397;-75
2023/08/29 08:43:23;;;;;;;12.93;6.50;;;16.40;52.80;;;;;;5050624;28;20416;-73
2023/08/29 08:45:50;;;;;;;12.20;6.20;;;16.40;21.80;;;;;;5050343;28;20898;-73
2023/08/29 08:48:15;;;;;;;13.00;6.50;;;16.20;47.70;;;;;;5050629;28;20386;-73
2023/08/29 08:50:44;;;;;;;12.43;6.60;;;16.20;61.20;;;;;;5050596;28;20896;-73
2023/08/29 08:53:10;;;;;;;10.60;5.50;;;16.30;67.60;;;;;;5050520;28;20738;-73
2023/08/29 08:55:36;;;;;;;13.23;6.70;;;16.50;99.90;;;;;;5050784;28;20456;-75
2023/08/29 08:58:01;;;;;;;13.20;5.70;;;16.60;59.50;;;;;;5050143;28;20381;-73
2023/08/29 09:00:27;;;;;;;13.50;6.00;;;16.70;18.30;;;;;;5049971;28;20413;-73
2023/08/29 09:02:53;;;;;;;10.43;5.47;;;16.60;46.70;;;;;;5049740;28;20389;-73
2023/08/29 09:05:20;;;;;;;14.18;6.55;;;16.70;55.70;;;;;;5050149;28;20457;-73
2023/08/29 09:07:46;;;;;;;12.60;6.30;;;16.60;1.00;;;;;;5050126;28;20382;-73
2023/08/29 09:10:16;;;;;;;20.57;6.83;;;16.40;1.00;;;;;;5050132;28;20408;-75
2023/08/29 09:12:53;;;;;;;13.30;6.90;;;16.40;1.00;;;;;;5031291;28;20385;-75
2023/08/29 09:15:19;;;;;;;12.02;6.70;;;16.30;10.10;;;;;;5049993;28;20468;-75
2023/08/29 09:17:54;;;;;;;13.23;6.88;;;16.20;22.40;;;;;;5049855;28;20886;-75
2023/08/29 09:20:21;;;;;;;12.35;6.80;;;16.10;37.00;;;;;;5050355;28;20475;-75
2023/08/29 09:22:49;;;;;;;13.45;6.25;;;16.10;74.00;;;;;;5049972;28;20425;-75
2023/08/29 09:25:14;;;;;;;12.60;7.13;;;16.30;99.90;;;;;;5049898;28;20785;-75
2023/08/29 09:27:42;;;;;;;12.10;6.50;;;16.50;28.50;;;;;;5048456;28;20599;-75
2023/08/29 09:30:12;;;;;;;13.88;6.97;;;16.60;24.90;;;;;;5030026;28;20395;-75
2023/08/29 09:33:07;;;;;;;12.27;6.93;;;16.60;29.40;;;;;;5030276;28;20461;-75
2023/08/29 09:35:33;;;;;;;12.95;6.72;;;16.90;23.30;;;;;;5027421;28;20395;-73
2023/08/29 09:37:59;;;;;;;13.75;6.38;;;17.10;1.00;;;;;;5029628;28;20387;-73
2023/08/29 09:40:24;;;;;;;14.50;7.70;;;17.20;1.00;;;;;;5029293;28;20982;-73
2023/08/29 09:42:59;;;;;;;12.00;7.30;;;17.40;1.00;;;;;;5029537;28;20419;-73
2023/08/29 09:45:25;;;;;;;13.77;7.40;;;17.50;1.00;;;;;;5029105;28;20390;-73
2023/08/29 09:47:52;;;;;;;13.52;6.93;;;17.70;1.00;;;;;;5029402;28;20484;-73
2023/08/29 09:50:20;;;;;;;12.33;6.60;;;17.90;1.00;;;;;;5029368;28;20414;-73
2023/08/29 09:52:45;;;;;;;12.45;5.97;;;17.90;1.00;;;;;;5029480;28;20445;-73
2023/08/29 09:55:13;;;;;;;11.02;6.15;;;17.90;1.00;;;;;;5029506;28;20398;-73
2023/08/29 09:57:40;;;;;;;12.48;6.85;;;17.50;1.00;;;;;;5028906;28;20403;-73
2023/08/29 10:00:09;;;;;;;11.68;6.07;;;17.60;1.00;;;;;;5029339;28;20946;-73
2023/08/29 10:02:36;;;;;;;10.40;6.00;;;17.70;1.00;;;;;;5029655;28;20470;-73
2023/08/29 10:05:09;;;;;;;14.10;7.70;;;17.80;1.00;;;;;;5029271;28;20494;-73
2023/08/29 10:08:05;;;;;;;12.40;6.70;;;17.70;1.00;;;;;;5029602;28;20474;-73
2023/08/29 10:10:31;;;;;;;12.10;6.60;;;18.00;1.00;;;;;;5028084;28;20482;-73
2023/08/29 10:12:59;;;;;;;15.10;7.80;;;18.10;1.00;;;;;;5028897;28;20808;-73
2023/08/29 10:15:25;;;;;;;11.85;6.20;;;18.40;1.00;;;;;;5028625;28;20394;-73
2023/08/29 10:17:52;;;;;;;12.80;6.90;;;18.20;1.00;;;;;;5028878;28;20404;-73
2023/08/29 10:20:19;;;;;;;12.80;6.60;;;17.90;1.00;;;;;;5028746;28;20414;-73
2023/08/29 10:22:48;;;;;;;10.10;5.40;;;17.80;1.00;;;;;;5028939;28;20399;-73
2023/08/29 10:25:14;;;;;;;11.25;6.00;;;17.70;1.00;;;;;;5028563;28;20867;-73
2023/08/29 10:27:41;;;;;;;12.55;6.72;;;17.40;1.00;;;;;;5029938;28;20460;-73
2023/08/29 10:30:07;;;;;;;11.40;6.70;;;17.40;1.00;;;;;;5049292;28;20386;-73
2023/08/29 10:32:34;;;;;;;11.90;7.32;;;17.40;1.00;;;;;;5048825;28;20385;-73
2023/08/29 10:35:00;;;;;;;11.65;6.75;;;17.60;1.00;;;;;;5049008;28;20413;-73
2023/08/29 10:37:28;;;;;;;15.15;7.00;;;17.60;1.00;;;;;;5048206;28;20397;-73
2023/08/29 10:40:09;;;;;;;12.77;6.97;;;17.70;1.00;;;;;;5049107;28;20751;-73
2023/08/29 10:42:54;;;;;;;14.65;7.80;;;17.70;1.00;;;;;;5049539;28;20392;-73
2023/08/29 10:45:49;;;;;;;12.87;6.53;;;17.50;1.00;;;;;;5048897;28;20476;-73
2023/08/29 10:48:19;;;;;;;13.20;7.28;;;17.40;1.00;;;;;;5049174;28;20397;-73
2023/08/29 10:50:47;;;;;;;15.75;8.00;;;17.60;1.00;;;;;;5048788;28;20389;-73
2023/08/29 10:53:18;;;;;;;17.42;8.00;;;17.70;1.00;;;;;;5048695;28;20405;-73
2023/08/29 10:55:58;;;;;;;14.60;7.18;;;18.10;1.00;;;;;;5048560;28;20393;-73
2023/08/29 10:58:34;;;;;;;12.93;7.90;;;18.40;1.00;;;;;;5049074;28;20390;-73
2023/08/29 11:01:01;;;;;;;9.55;5.53;;;18.70;1.00;;;;;;5048303;28;20404;-73
2023/08/29 11:03:50;;;;;;;12.43;6.57;;;18.80;99.90;;;;;;5030354;28;20454;-73
2023/08/29 11:06:17;;;;;;;13.65;6.15;;;18.60;99.90;;;;;;5048519;28;20504;-73
2023/08/29 11:08:43;;;;;;;12.43;6.80;;;18.70;99.90;;;;;;5048462;28;20480;-73
2023/08/29 11:11:13;;;;;;;11.37;6.57;;;18.90;99.90;;;;;;5048561;28;20454;-73
2023/08/29 11:13:59;;;;;;;10.63;5.90;;;18.80;99.90;;;;;;5048285;28;20887;-73
2023/08/29 11:16:26;;;;;;;11.95;6.95;;;18.90;99.90;;;;;;5048538;28;20392;-73
2023/08/29 11:19:11;;;;;;;11.20;6.60;;;19.10;99.90;;;;;;5048722;28;21031;-73
2023/08/29 11:21:37;;;;;;;9.70;5.80;;;19.40;99.90;;;;;;5048966;28;20753;-73
2023/08/29 11:24:06;;;;;;;11.00;5.50;;;19.60;99.90;;;;;;5048308;28;20401;-73
2023/08/29 11:26:35;;;;;;;12.10;5.50;;;19.50;1.00;;;;;;5048204;28;20387;-73
2023/08/29 11:29:01;;;;;;;10.68;5.78;;;19.80;1.00;;;;;;5035848;28;20482;-73
2023/08/29 11:31:26;;;;;;;9.87;5.50;;;19.90;1.00;;;;;;5028355;28;20923;-73
2023/08/29 11:33:52;;;;;;;10.73;6.07;;;19.90;99.90;;;;;;5028102;28;20403;-73
2023/08/29 11:36:18;;;;;;;10.90;5.53;;;20.10;99.90;;;;;;5029477;28;20893;-73
2023/08/29 11:38:44;;;;;;;9.38;3.60;;;20.10;99.90;;;;;;5032728;28;20398;-73
2023/08/29 11:41:10;;;;;;;10.40;3.53;;;19.60;1.00;;;;;;5031909;28;20391;-73
2023/08/29 11:43:36;;;;;;;8.63;4.05;;;19.50;1.00;;;;;;5032851;28;20405;-73
2023/08/29 11:46:03;;;;;;;8.80;4.30;;;19.60;1.00;;;;;;5032491;28;20447;-73
2023/08/29 11:48:31;;;;;;;10.20;5.70;;;19.40;99.90;;;;;;5032238;28;20482;-73
2023/08/29 11:50:59;;;;;;;11.25;5.85;;;19.00;99.90;;;;;;5032230;28;20422;-73
2023/08/29 11:53:31;;;;;;;12.73;6.20;;;18.90;99.90;;;;;;5031999;28;20513;-73
2023/08/29 11:55:57;;;;;;;12.35;6.00;;;18.80;99.90;;;;;;5030823;28;20406;-74
2023/08/29 11:58:34;;;;;;;10.13;5.80;;;18.70;1.00;;;;;;5031690;28;20399;-73
2023/08/29 12:01:04;;;;;;;9.90;5.35;;;18.80;99.90;;;;;;5031426;28;20399;-73
2023/08/29 12:03:33;;;;;;;9.95;5.45;;;18.90;1.00;;;;;;5031207;28;20413;-73
2023/08/29 12:05:59;;;;;;;9.80;5.70;;;19.00;99.90;;;;;;5032146;28;20402;-73
2023/08/29 12:08:44;;;;;;;9.27;5.22;;;19.00;99.90;;;;;;5032303;28;20399;-73
2023/08/29 12:11:16;;;;;;;10.27;5.10;;;19.10;99.90;;;;;;5031357;28;20786;-73
2023/08/29 12:13:59;;;;;;;8.75;4.78;;;18.90;99.90;;;;;;5031728;28;20394;-73
2023/08/29 12:16:25;;;;;;;8.65;4.70;;;18.70;1.00;;;;;;5031575;28;20379;-73
2023/08/29 12:18:50;;;;;;;7.60;3.90;;;18.40;99.90;;;;;;5031629;28;20402;-73
2023/08/29 12:21:18;;;;;;;7.87;3.67;;;18.50;3.10;;;;;;5031285;28;20415;-73
2023/08/29 12:23:45;;;;;;;7.80;3.15;;;18.40;99.90;;;;;;5031690;28;20394;-73
2023/08/29 12:26:14;;;;;;;6.60;3.10;;;18.30;1.00;;;;;;5031575;28;20387;-74
2023/08/29 12:28:40;;;;;;;13.10;3.15;;;18.30;99.90;;;;;;5040604;28;20393;-73
2023/08/29 12:31:07;;;;;;;8.30;3.70;;;18.50;99.90;;;;;;5051922;28;20481;-73
2023/08/29 12:33:34;;;;;;;7.38;3.70;;;18.50;99.90;;;;;;5050908;28;20389;-72
2023/08/29 12:36:00;;;;;;;7.25;3.30;;;18.70;99.90;;;;;;5051126;28;20497;-73
2023/08/29 12:38:26;;;;;;;7.95;3.47;;;19.00;99.90;;;;;;5050772;28;20488;-73
2023/08/29 12:40:52;;;;;;;9.60;3.80;;;19.10;1.00;;;;;;5051382;28;20425;-73
2023/08/29 12:43:19;;;;;;;7.90;3.30;;;19.00;99.90;;;;;;5051657;28;20381;-73
2023/08/29 12:45:45;;;;;;;7.00;3.60;;;18.90;26.60;;;;;;5050399;28;20385;-73